createdAt,value
2016-05-19T00:00:07.038Z,997.06
2016-05-19T00:01:07.182Z,997.08
2016-05-19T00:02:06.997Z,997.03
2016-05-19T00:03:07.046Z,997.06
2016-05-19T00:04:06.971Z,997.05
2016-05-19T00:05:06.973Z,997.01
2016-05-19T00:06:06.945Z,997.03
2016-05-19T00:07:06.947Z,997.02
2016-05-19T00:08:06.919Z,997.01
2016-05-19T00:09:06.922Z,996.97
2016-05-19T00:10:06.894Z,996.98
2016-05-19T00:11:06.881Z,996.97
2016-05-19T00:12:06.867Z,996.94
2016-05-19T00:13:06.855Z,996.94
2016-05-19T00:14:06.842Z,996.92
2016-05-19T00:15:06.829Z,996.93
2016-05-19T00:16:06.816Z,996.93
2016-05-19T00:17:06.788Z,996.92
2016-05-19T00:18:06.791Z,996.92
2016-05-19T00:19:06.761Z,996.91
2016-05-19T00:20:06.952Z,996.94
2016-05-19T00:21:06.735Z,996.93
2016-05-19T00:22:06.722Z,996.99
2016-05-19T00:23:06.725Z,996.95
2016-05-19T00:24:06.712Z,996.92
2016-05-19T00:25:06.685Z,996.95
2016-05-19T00:26:06.671Z,996.89
2016-05-19T00:27:06.657Z,996.94
2016-05-19T00:28:06.645Z,996.9
2016-05-19T00:29:06.632Z,996.93
2016-05-19T00:30:06.619Z,996.93
2016-05-19T00:31:06.606Z,996.94
2016-05-19T00:32:06.593Z,996.9
2016-05-19T00:33:06.580Z,996.92
2016-05-19T00:34:06.567Z,996.95
2016-05-19T00:35:06.539Z,996.94
2016-05-19T00:36:06.526Z,996.96
2016-05-19T00:37:06.529Z,996.94
2016-05-19T00:38:06.500Z,996.94
2016-05-19T00:39:06.487Z,996.95
2016-05-19T00:40:06.490Z,996.96
2016-05-19T00:41:06.461Z,996.96
2016-05-19T00:42:06.448Z,996.97
2016-05-19T00:43:06.436Z,996.93
2016-05-19T00:44:06.422Z,996.94
2016-05-19T00:45:06.409Z,996.95
2016-05-19T00:46:06.397Z,996.93
2016-05-19T00:47:06.383Z,996.97
2016-05-19T00:48:06.371Z,996.93
2016-05-19T00:49:06.342Z,996.96
2016-05-19T00:50:06.344Z,996.94
2016-05-19T00:51:06.332Z,996.94
2016-05-19T00:52:06.319Z,996.94
2016-05-19T00:53:06.290Z,996.93
2016-05-19T00:54:06.277Z,996.96
2016-05-19T00:55:06.265Z,996.91
2016-05-19T00:56:06.252Z,996.93
2016-05-19T00:57:06.239Z,996.93
2016-05-19T00:58:06.226Z,996.93
2016-05-19T00:59:06.212Z,996.9
2016-05-19T01:00:06.200Z,996.91
2016-05-19T01:01:06.187Z,996.89
2016-05-19T01:02:06.173Z,996.91
2016-05-19T01:03:06.161Z,996.92
2016-05-19T01:04:06.148Z,996.92
2016-05-19T01:05:06.135Z,996.89
2016-05-19T01:06:06.138Z,996.91
2016-05-19T01:07:06.109Z,996.89
2016-05-19T01:08:06.081Z,996.94
2016-05-19T01:09:06.068Z,996.94
2016-05-19T01:10:06.070Z,996.95
2016-05-19T01:11:06.042Z,996.93
2016-05-19T01:12:06.028Z,996.93
2016-05-19T01:13:06.016Z,996.92
2016-05-19T01:14:06.003Z,996.9
2016-05-19T01:15:05.990Z,996.94
2016-05-19T01:16:05.977Z,996.94
2016-05-19T01:17:05.964Z,996.97
2016-05-19T01:18:05.952Z,996.96
2016-05-19T01:19:05.939Z,996.96
2016-05-19T01:20:05.925Z,996.91
2016-05-19T01:21:05.912Z,996.89
2016-05-19T01:22:05.900Z,996.92
2016-05-19T01:23:05.887Z,996.92
2016-05-19T01:24:05.874Z,996.9
2016-05-19T01:25:05.860Z,996.93
2016-05-19T01:26:05.848Z,996.95
2016-05-19T01:27:05.835Z,996.92
2016-05-19T01:28:05.822Z,996.87
2016-05-19T01:29:05.793Z,996.93
2016-05-19T01:30:05.780Z,996.84
2016-05-19T01:31:05.768Z,996.89
2016-05-19T01:32:05.754Z,996.86
2016-05-19T01:33:05.742Z,996.89
2016-05-19T01:34:05.729Z,996.86
2016-05-19T01:35:05.731Z,996.88
2016-05-19T01:36:05.703Z,996.87
2016-05-19T01:37:05.690Z,996.88
2016-05-19T01:38:05.676Z,996.85
2016-05-19T01:39:05.665Z,996.85
2016-05-19T01:40:05.650Z,996.83
2016-05-19T01:41:05.638Z,996.88
2016-05-19T01:42:05.625Z,996.83
2016-05-19T01:43:05.612Z,996.84
2016-05-19T01:44:05.600Z,996.84
2016-05-19T01:45:05.587Z,996.89
2016-05-19T01:46:05.573Z,996.9
2016-05-19T01:47:05.561Z,996.94
2016-05-19T01:48:05.547Z,996.91
2016-05-19T01:49:05.535Z,996.93
2016-05-19T01:50:05.538Z,996.89
2016-05-19T01:51:05.494Z,996.93
2016-05-19T01:52:05.480Z,996.95
2016-05-19T01:53:05.483Z,996.95
2016-05-19T01:54:05.455Z,996.93
2016-05-19T01:55:05.441Z,996.93
2016-05-19T01:56:05.429Z,996.94
2016-05-19T01:57:05.416Z,996.9
2016-05-19T01:58:05.402Z,996.93
2016-05-19T01:59:05.390Z,996.91
2016-05-19T02:00:05.377Z,996.95
2016-05-19T02:01:05.363Z,996.95
2016-05-19T02:02:05.351Z,996.94
2016-05-19T02:03:05.337Z,996.92
2016-05-19T02:04:05.325Z,996.93
2016-05-19T02:05:05.313Z,997.02
2016-05-19T02:06:05.299Z,997.03
2016-05-19T02:07:05.286Z,997.03
2016-05-19T02:08:05.461Z,997.01
2016-05-19T02:09:05.245Z,997.04
2016-05-19T02:10:05.232Z,997.03
2016-05-19T02:11:05.220Z,997.03
2016-05-19T02:12:05.206Z,997.01
2016-05-19T02:13:05.193Z,997.01
2016-05-19T02:14:05.181Z,997.04
2016-05-19T02:15:05.167Z,997.02
2016-05-19T02:16:05.154Z,997.06
2016-05-19T02:17:05.141Z,997.04
2016-05-19T02:18:05.128Z,997.04
2016-05-19T02:19:05.116Z,997.03
2016-05-19T02:20:05.102Z,996.99
2016-05-19T02:21:05.089Z,997.07
2016-05-19T02:22:05.061Z,997.04
2016-05-19T02:23:05.047Z,997.07
2016-05-19T02:24:05.035Z,997.09
2016-05-19T02:25:05.077Z,997.08
2016-05-19T02:26:05.017Z,997.07
2016-05-19T02:27:05.004Z,997.08
2016-05-19T02:28:04.975Z,997.07
2016-05-19T02:29:04.978Z,997.04
2016-05-19T02:30:04.950Z,997.05
2016-05-19T02:31:04.937Z,997.04
2016-05-19T02:32:04.924Z,997.03
2016-05-19T02:33:04.910Z,997.02
2016-05-19T02:34:04.898Z,997.02
2016-05-19T02:35:04.885Z,996.99
2016-05-19T02:36:04.872Z,996.98
2016-05-19T02:37:04.859Z,997.04
2016-05-19T02:38:04.862Z,997.02
2016-05-19T02:39:04.834Z,996.99
2016-05-19T02:40:04.804Z,997.04
2016-05-19T02:41:04.835Z,997.04
2016-05-19T02:42:04.850Z,997.05
2016-05-19T02:43:04.880Z,997.04
2016-05-19T02:44:04.912Z,997.03
2016-05-19T02:45:04.942Z,997.04
2016-05-19T02:46:04.954Z,997.03
2016-05-19T02:47:04.957Z,997.08
2016-05-19T02:48:04.958Z,997.04
2016-05-19T02:49:04.962Z,997.03
2016-05-19T02:50:04.964Z,997.03
2016-05-19T02:51:04.944Z,997.06
2016-05-19T02:52:04.937Z,997.03
2016-05-19T02:53:05.134Z,997.02
2016-05-19T02:54:04.922Z,997.02
2016-05-19T02:55:04.915Z,996.99
2016-05-19T02:56:04.921Z,997.01
2016-05-19T02:57:04.895Z,996.99
2016-05-19T02:58:04.883Z,997.04
2016-05-19T02:59:04.873Z,997
2016-05-19T03:00:04.847Z,997.02
2016-05-19T03:01:04.835Z,997.01
2016-05-19T03:02:04.854Z,997.03
2016-05-19T03:03:04.810Z,997.06
2016-05-19T03:04:04.798Z,997.08
2016-05-19T03:05:04.785Z,997.06
2016-05-19T03:06:04.774Z,997.11
2016-05-19T03:07:04.777Z,997.19
2016-05-19T03:08:04.748Z,997.15
2016-05-19T03:09:04.752Z,997.19
2016-05-19T03:10:04.738Z,997.21
2016-05-19T03:11:04.694Z,997.19
2016-05-19T03:12:04.681Z,997.18
2016-05-19T03:13:04.669Z,997.26
2016-05-19T03:14:04.656Z,997.25
2016-05-19T03:15:04.644Z,997.19
2016-05-19T03:16:04.630Z,997.23
2016-05-19T03:17:04.617Z,997.24
2016-05-19T03:18:04.589Z,997.23
2016-05-19T03:19:04.575Z,997.25
2016-05-19T03:20:04.563Z,997.25
2016-05-19T03:21:04.550Z,997.29
2016-05-19T03:22:04.537Z,997.29
2016-05-19T03:23:04.899Z,997.31
2016-05-19T03:24:04.510Z,997.29
2016-05-19T03:25:04.498Z,997.31
2016-05-19T03:26:04.469Z,997.31
2016-05-19T03:27:04.487Z,997.35
2016-05-19T03:28:04.443Z,997.33
2016-05-19T03:29:04.431Z,997.39
2016-05-19T03:30:04.418Z,997.4
2016-05-19T03:31:04.404Z,997.43
2016-05-19T03:32:04.392Z,997.46
2016-05-19T03:33:04.379Z,997.47
2016-05-19T03:34:04.366Z,997.47
2016-05-19T03:35:04.338Z,997.53
2016-05-19T03:36:04.325Z,997.5
2016-05-19T03:37:04.312Z,997.49
2016-05-19T03:38:04.298Z,997.51
2016-05-19T03:39:04.285Z,997.56
2016-05-19T03:40:04.273Z,997.56
2016-05-19T03:41:04.259Z,997.59
2016-05-19T03:42:04.247Z,997.63
2016-05-19T03:43:04.233Z,997.66
2016-05-19T03:44:04.205Z,997.66
2016-05-19T03:45:04.192Z,997.67
2016-05-19T03:46:04.179Z,997.68
2016-05-19T03:47:04.166Z,997.69
2016-05-19T03:48:04.153Z,997.7
2016-05-19T03:49:04.156Z,997.69
2016-05-19T03:50:04.113Z,997.75
2016-05-19T03:51:04.099Z,997.73
2016-05-19T03:52:04.086Z,997.7
2016-05-19T03:53:04.074Z,997.72
2016-05-19T03:54:04.061Z,997.71
2016-05-19T03:55:04.047Z,997.72
2016-05-19T03:56:04.035Z,997.73
2016-05-19T03:57:04.021Z,997.73
2016-05-19T03:58:03.993Z,997.76
2016-05-19T03:59:03.980Z,997.77
2016-05-19T04:00:03.967Z,997.78
2016-05-19T04:01:03.954Z,997.81
2016-05-19T04:02:03.940Z,997.79
2016-05-19T04:03:03.928Z,997.81
2016-05-19T04:04:03.915Z,997.82
2016-05-19T04:05:03.903Z,997.84
2016-05-19T04:06:03.873Z,997.82
2016-05-19T04:07:03.861Z,997.87
2016-05-19T04:08:04.317Z,997.9
2016-05-19T04:09:03.835Z,997.89
2016-05-19T04:10:03.823Z,997.94
2016-05-19T04:11:03.809Z,997.96
2016-05-19T04:12:03.781Z,997.93
2016-05-19T04:13:03.784Z,997.94
2016-05-19T04:14:03.755Z,997.95
2016-05-19T04:15:03.757Z,997.99
2016-05-19T04:16:03.728Z,998.01
2016-05-19T04:17:03.716Z,997.99
2016-05-19T04:18:03.703Z,998.03
2016-05-19T04:19:03.690Z,998.02
2016-05-19T04:20:03.661Z,998.01
2016-05-19T04:21:03.648Z,998.02
2016-05-19T04:22:03.635Z,998
2016-05-19T04:23:03.622Z,998.01
2016-05-19T04:24:03.610Z,998.04
2016-05-19T04:25:03.597Z,998.04
2016-05-19T04:26:03.584Z,998.11
2016-05-19T04:27:03.555Z,998.09
2016-05-19T04:28:03.543Z,998.09
2016-05-19T04:29:03.530Z,998.12
2016-05-19T04:30:03.516Z,998.16
2016-05-19T04:31:03.504Z,998.19
2016-05-19T04:32:03.491Z,998.17
2016-05-19T04:33:03.478Z,998.22
2016-05-19T04:34:03.465Z,998.22
2016-05-19T04:35:03.451Z,998.21
2016-05-19T04:36:03.423Z,998.24
2016-05-19T04:37:03.410Z,998.28
2016-05-19T04:38:03.397Z,998.25
2016-05-19T04:39:03.385Z,998.24
2016-05-19T04:40:03.372Z,998.24
2016-05-19T04:41:03.358Z,998.21
2016-05-19T04:42:03.346Z,998.22
2016-05-19T04:43:03.333Z,998.23
2016-05-19T04:44:03.320Z,998.22
2016-05-19T04:45:03.291Z,998.22
2016-05-19T04:46:03.278Z,998.27
2016-05-19T04:47:03.265Z,998.27
2016-05-19T04:48:03.253Z,998.28
2016-05-19T04:49:03.239Z,998.27
2016-05-19T04:50:03.227Z,998.29
2016-05-19T04:51:03.198Z,998.28
2016-05-19T04:52:03.185Z,998.31
2016-05-19T04:53:03.375Z,998.28
2016-05-19T04:54:03.159Z,998.26
2016-05-19T04:55:03.147Z,998.35
2016-05-19T04:56:03.133Z,998.31
2016-05-19T04:57:03.120Z,998.33
2016-05-19T04:58:03.108Z,998.37
2016-05-19T04:59:03.079Z,998.41
2016-05-19T05:00:03.066Z,998.42
2016-05-19T05:01:03.054Z,998.49
2016-05-19T05:02:03.040Z,998.5
2016-05-19T05:03:03.027Z,998.5
2016-05-19T05:04:03.014Z,998.56
2016-05-19T05:05:03.001Z,998.59
2016-05-19T05:06:02.988Z,998.59
2016-05-19T05:07:02.976Z,998.62
2016-05-19T05:08:03.212Z,998.6
2016-05-19T05:09:02.934Z,998.63
2016-05-19T05:10:02.921Z,998.67
2016-05-19T05:11:02.908Z,998.63
2016-05-19T05:12:02.895Z,998.63
2016-05-19T05:13:02.882Z,998.61
2016-05-19T05:14:02.870Z,998.65
2016-05-19T05:15:02.856Z,998.63
2016-05-19T05:16:02.844Z,998.66
2016-05-19T05:17:02.831Z,998.69
2016-05-19T05:18:02.817Z,998.7
2016-05-19T05:19:02.805Z,998.66
2016-05-19T05:20:02.776Z,998.73
2016-05-19T05:21:02.763Z,998.77
2016-05-19T05:22:02.750Z,998.81
2016-05-19T05:23:02.737Z,998.83
2016-05-19T05:24:02.724Z,998.85
2016-05-19T05:25:02.712Z,998.86
2016-05-19T05:26:02.699Z,998.86
2016-05-19T05:27:02.685Z,998.88
2016-05-19T05:28:02.672Z,998.91
2016-05-19T05:29:02.660Z,998.94
2016-05-19T05:30:02.647Z,998.88
2016-05-19T05:31:02.634Z,998.89
2016-05-19T05:32:02.621Z,998.92
2016-05-19T05:33:02.608Z,998.89
2016-05-19T05:34:02.579Z,998.92
2016-05-19T05:35:02.566Z,998.92
2016-05-19T05:36:02.554Z,998.98
2016-05-19T05:37:02.556Z,998.99
2016-05-19T05:38:02.528Z,999.04
2016-05-19T05:39:02.531Z,999.08
2016-05-19T05:40:02.502Z,999.07
2016-05-19T05:41:02.489Z,999.15
2016-05-19T05:42:02.476Z,999.19
2016-05-19T05:43:02.463Z,999.19
2016-05-19T05:44:02.451Z,999.14
2016-05-19T05:45:02.437Z,999.25
2016-05-19T05:46:02.425Z,999.24
2016-05-19T05:47:02.411Z,999.23
2016-05-19T05:48:02.398Z,999.3
2016-05-19T05:49:02.385Z,999.23
2016-05-19T05:50:02.373Z,999.3
2016-05-19T05:51:02.359Z,999.31
2016-05-19T05:52:02.347Z,999.38
2016-05-19T05:53:02.334Z,999.39
2016-05-19T05:54:02.492Z,999.37
2016-05-19T05:55:02.308Z,999.38
2016-05-19T05:56:02.295Z,999.4
2016-05-19T05:57:02.282Z,999.4
2016-05-19T05:58:02.253Z,999.48
2016-05-19T05:59:02.240Z,999.46
2016-05-19T06:00:02.227Z,999.46
2016-05-19T06:01:02.215Z,999.5
2016-05-19T06:02:02.202Z,999.53
2016-05-19T06:03:02.189Z,999.56
2016-05-19T06:04:02.176Z,999.56
2016-05-19T06:05:02.163Z,999.59
2016-05-19T06:06:02.150Z,999.6
2016-05-19T06:07:02.137Z,999.6
2016-05-19T06:08:02.359Z,999.61
2016-05-19T06:09:02.111Z,999.63
2016-05-19T06:10:02.114Z,999.61
2016-05-19T06:11:02.085Z,999.65
2016-05-19T06:12:02.072Z,999.69
2016-05-19T06:13:02.059Z,999.66
2016-05-19T06:14:02.046Z,999.7
2016-05-19T06:15:02.034Z,999.67
2016-05-19T06:16:02.021Z,999.65
2016-05-19T06:17:02.008Z,999.72
2016-05-19T06:18:01.995Z,999.74
2016-05-19T06:19:01.981Z,999.73
2016-05-19T06:20:01.969Z,999.73
2016-05-19T06:21:01.971Z,999.79
2016-05-19T06:22:01.943Z,999.81
2016-05-19T06:23:01.930Z,999.83
2016-05-19T06:24:01.917Z,999.84
2016-05-19T06:25:01.905Z,999.84
2016-05-19T06:26:01.892Z,999.86
2016-05-19T06:27:01.878Z,999.82
2016-05-19T06:28:01.865Z,999.85
2016-05-19T06:29:01.852Z,999.84
2016-05-19T06:30:01.839Z,999.84
2016-05-19T06:31:01.826Z,999.83
2016-05-19T06:32:01.814Z,999.84
2016-05-19T06:33:01.801Z,999.87
2016-05-19T06:34:01.788Z,999.92
2016-05-19T06:35:01.775Z,999.97
2016-05-19T06:36:01.762Z,1000.01
2016-05-19T06:37:01.749Z,1000.01
2016-05-19T06:38:01.798Z,1000.03
2016-05-19T06:39:01.723Z,1000.08
2016-05-19T06:40:01.710Z,1000.1
2016-05-19T06:41:01.698Z,1000.14
2016-05-19T06:42:01.684Z,1000.14
2016-05-19T06:43:01.671Z,1000.15
2016-05-19T06:44:01.659Z,1000.18
2016-05-19T06:45:01.646Z,1000.22
2016-05-19T06:46:01.632Z,1000.21
2016-05-19T06:47:01.620Z,1000.29
2016-05-19T06:48:01.607Z,1000.28
2016-05-19T06:49:01.594Z,1000.3
2016-05-19T06:50:01.783Z,1000.25
2016-05-19T06:51:01.567Z,1000.24
2016-05-19T06:52:01.555Z,1000.32
2016-05-19T06:53:01.745Z,1000.27
2016-05-19T06:54:01.764Z,1000.28
2016-05-19T06:55:01.516Z,1000.29
2016-05-19T06:56:01.503Z,1000.3
2016-05-19T06:57:01.491Z,1000.36
2016-05-19T06:58:01.494Z,1000.37
2016-05-19T06:59:01.463Z,1000.39
2016-05-19T07:00:01.452Z,1000.36
2016-05-19T07:01:01.438Z,1000.38
2016-05-19T07:02:01.425Z,1000.37
2016-05-19T07:03:01.412Z,1000.4
2016-05-19T07:04:01.399Z,1000.4
2016-05-19T07:05:01.387Z,1000.4
2016-05-19T07:06:01.390Z,1000.42
2016-05-19T07:07:01.360Z,1000.45
2016-05-19T07:08:01.363Z,1000.43
2016-05-19T07:09:01.335Z,1000.47
2016-05-19T07:10:01.321Z,1000.51
2016-05-19T07:11:01.340Z,1000.49
2016-05-19T07:12:01.296Z,1000.53
2016-05-19T07:13:01.283Z,1000.51
2016-05-19T07:14:01.270Z,1000.53
2016-05-19T07:15:01.257Z,1000.5
2016-05-19T07:16:01.244Z,1000.57
2016-05-19T07:17:01.247Z,1000.52
2016-05-19T07:18:01.234Z,1000.57
2016-05-19T07:19:01.221Z,1000.59
2016-05-19T07:20:01.208Z,1000.62
2016-05-19T07:21:01.195Z,1000.63
2016-05-19T07:22:01.183Z,1000.61
2016-05-19T07:23:01.169Z,1000.65
2016-05-19T07:24:01.156Z,1000.66
2016-05-19T07:25:01.144Z,1000.7
2016-05-19T07:26:01.131Z,1000.69
2016-05-19T07:27:01.117Z,1000.72
2016-05-19T07:28:01.105Z,1000.7
2016-05-19T07:29:01.108Z,1000.71
2016-05-19T07:30:01.080Z,1000.76
2016-05-19T07:31:01.066Z,1000.76
2016-05-19T07:32:01.053Z,1000.76
2016-05-19T07:33:01.040Z,1000.78
2016-05-19T07:34:01.027Z,1000.83
2016-05-19T07:35:01.014Z,1000.84
2016-05-19T07:36:01.002Z,1000.82
2016-05-19T07:37:00.988Z,1000.84
2016-05-19T07:38:00.991Z,1000.85
2016-05-19T07:39:00.962Z,1000.86
2016-05-19T07:40:00.949Z,1000.9
2016-05-19T07:41:00.952Z,1000.89
2016-05-19T07:42:00.939Z,1000.94
2016-05-19T07:43:00.926Z,1000.97
2016-05-19T07:44:00.913Z,1000.94
2016-05-19T07:45:00.900Z,1000.98
2016-05-19T07:46:00.888Z,1000.97
2016-05-19T07:47:00.875Z,1001.04
2016-05-19T07:48:00.861Z,1001.04
2016-05-19T07:49:00.865Z,1001.03
2016-05-19T07:50:00.852Z,1001.1
2016-05-19T07:51:00.839Z,1001.11
2016-05-19T07:52:00.826Z,1001.13
2016-05-19T07:53:00.812Z,1001.14
2016-05-19T07:54:00.800Z,1001.15
2016-05-19T07:55:00.786Z,1001.16
2016-05-19T07:56:00.774Z,1001.15
2016-05-19T07:57:00.761Z,1001.16
2016-05-19T07:58:00.764Z,1001.17
2016-05-19T07:59:00.735Z,1001.21
2016-05-19T08:00:00.738Z,1001.21
2016-05-19T08:01:00.709Z,1001.25
2016-05-19T08:02:00.711Z,1001.27
2016-05-19T08:03:00.699Z,1001.27
2016-05-19T08:04:00.685Z,1001.3
2016-05-19T08:05:00.673Z,1001.3
2016-05-19T08:06:00.660Z,1001.29
2016-05-19T08:07:00.647Z,1001.3
2016-05-19T08:08:00.635Z,1001.32
2016-05-19T08:09:00.622Z,1001.35
2016-05-19T08:10:00.608Z,1001.36
2016-05-19T08:11:00.611Z,1001.36
2016-05-19T08:12:00.598Z,1001.37
2016-05-19T08:13:00.585Z,1001.36
2016-05-19T08:14:00.573Z,1001.38
2016-05-19T08:15:00.559Z,1001.38
2016-05-19T08:16:00.546Z,1001.38
2016-05-19T08:17:00.534Z,1001.44
2016-05-19T08:18:00.521Z,1001.46
2016-05-19T08:19:00.507Z,1001.5
2016-05-19T08:20:00.495Z,1001.52
2016-05-19T08:21:00.481Z,1001.51
2016-05-19T08:22:00.469Z,1001.56
2016-05-19T08:23:00.456Z,1001.59
2016-05-19T08:24:00.645Z,1001.58
2016-05-19T08:25:00.445Z,1001.6
2016-05-19T08:26:00.432Z,1001.59
2016-05-19T08:27:00.419Z,1001.56
2016-05-19T08:28:00.406Z,1001.61
2016-05-19T08:29:00.394Z,1001.62
2016-05-19T08:30:00.397Z,1001.61
2016-05-19T08:31:00.368Z,1001.63
2016-05-19T08:32:00.355Z,1001.6
2016-05-19T08:33:00.342Z,1001.65
2016-05-19T08:34:00.329Z,1001.65
2016-05-19T08:35:00.317Z,1001.67
2016-05-19T08:36:00.303Z,1001.67
2016-05-19T08:37:00.306Z,1001.67
2016-05-19T08:38:00.293Z,1001.69
2016-05-19T08:39:00.515Z,1001.73
2016-05-19T08:40:00.267Z,1001.74
2016-05-19T08:41:00.254Z,1001.79
2016-05-19T08:42:00.241Z,1001.82
2016-05-19T08:43:00.229Z,1001.84
2016-05-19T08:44:00.216Z,1001.84
2016-05-19T08:45:00.202Z,1001.89
2016-05-19T08:46:00.190Z,1001.87
2016-05-19T08:47:00.176Z,1001.91
2016-05-19T08:48:00.164Z,1001.91
2016-05-19T08:49:00.150Z,1001.88
2016-05-19T08:50:00.153Z,1001.9
2016-05-19T08:51:00.140Z,1001.97
2016-05-19T08:52:00.128Z,1001.96
2016-05-19T08:53:00.317Z,1002
2016-05-19T08:54:00.101Z,1002.06
2016-05-19T08:55:00.198Z,1002.09
2016-05-19T08:56:00.076Z,1002.09
2016-05-19T08:57:00.063Z,1002.1
2016-05-19T08:58:00.050Z,1002.1
2016-05-19T08:59:00.036Z,1002.1
2016-05-19T09:00:00.039Z,1002.09
2016-05-19T09:01:00.027Z,1002.11
2016-05-19T09:02:00.014Z,1002.15
2016-05-19T09:03:00.001Z,1002.21
2016-05-19T09:03:59.988Z,1002.13
2016-05-19T09:04:59.975Z,1002.16
2016-05-19T09:05:59.978Z,1002.15
2016-05-19T09:06:59.965Z,1002.17
2016-05-19T09:07:59.951Z,1002.19
2016-05-19T09:08:59.938Z,1002.18
2016-05-19T09:09:59.926Z,1002.19
2016-05-19T09:10:59.913Z,1002.18
2016-05-19T09:11:59.899Z,1002.16
2016-05-19T09:12:59.903Z,1002.2
2016-05-19T09:13:59.890Z,1002.24
2016-05-19T09:14:59.892Z,1002.3
2016-05-19T09:15:59.865Z,1002.34
2016-05-19T09:16:59.851Z,1002.37
2016-05-19T09:17:59.838Z,1002.38
2016-05-19T09:18:59.825Z,1002.41
2016-05-19T09:19:59.813Z,1002.43
2016-05-19T09:20:59.815Z,1002.44
2016-05-19T09:21:59.801Z,1002.48
2016-05-19T09:22:59.789Z,1002.49
2016-05-19T09:23:59.776Z,1002.52
2016-05-19T09:24:59.764Z,1002.49
2016-05-19T09:25:59.750Z,1002.55
2016-05-19T09:26:59.737Z,1002.56
2016-05-19T09:27:59.724Z,1002.56
2016-05-19T09:28:59.711Z,1002.62
2016-05-19T09:29:59.714Z,1002.59
2016-05-19T09:30:59.701Z,1002.61
2016-05-19T09:31:59.689Z,1002.61
2016-05-19T09:32:59.675Z,1002.63
2016-05-19T09:33:59.663Z,1002.65
2016-05-19T09:34:59.649Z,1002.66
2016-05-19T09:35:59.636Z,1002.68
2016-05-19T09:36:59.623Z,1002.73
2016-05-19T09:37:59.611Z,1002.69
2016-05-19T09:38:59.598Z,1002.68
2016-05-19T09:39:59.600Z,1002.67
2016-05-19T09:40:59.588Z,1002.71
2016-05-19T09:41:59.574Z,1002.71
2016-05-19T09:42:59.562Z,1002.67
2016-05-19T09:43:59.549Z,1002.7
2016-05-19T09:44:59.535Z,1002.73
2016-05-19T09:45:59.523Z,1002.68
2016-05-19T09:46:59.510Z,1002.73
2016-05-19T09:47:59.497Z,1002.78
2016-05-19T09:48:59.499Z,1002.75
2016-05-19T09:49:59.487Z,1002.79
2016-05-19T09:50:59.474Z,1002.8
2016-05-19T09:51:59.461Z,1002.79
2016-05-19T09:52:59.448Z,1002.8
2016-05-19T09:53:59.482Z,1002.83
2016-05-19T09:54:59.437Z,1002.84
2016-05-19T09:55:59.425Z,1002.88
2016-05-19T09:56:59.412Z,1002.84
2016-05-19T09:57:59.398Z,1002.85
2016-05-19T09:58:59.386Z,1002.87
2016-05-19T09:59:59.389Z,1002.97
2016-05-19T10:00:59.360Z,1002.97
2016-05-19T10:01:59.363Z,1002.89
2016-05-19T10:02:59.350Z,1002.94
2016-05-19T10:03:59.337Z,1002.94
2016-05-19T10:04:59.324Z,1002.94
2016-05-19T10:05:59.327Z,1002.96
2016-05-19T10:06:59.314Z,1002.94
2016-05-19T10:07:59.301Z,1003
2016-05-19T10:08:59.288Z,1002.97
2016-05-19T10:09:59.291Z,1002.98
2016-05-19T10:10:59.277Z,1003.03
2016-05-19T10:11:59.265Z,1003.03
2016-05-19T10:12:59.252Z,1002.99
2016-05-19T10:13:59.255Z,1003.01
2016-05-19T10:14:59.241Z,1003.04
2016-05-19T10:15:59.229Z,1003.05
2016-05-19T10:16:59.216Z,1003.09
2016-05-19T10:17:59.218Z,1003.04
2016-05-19T10:18:59.205Z,1003.11
2016-05-19T10:19:59.193Z,1003.15
2016-05-19T10:20:59.196Z,1003.15
2016-05-19T10:21:59.182Z,1003.18
2016-05-19T10:22:59.170Z,1003.2
2016-05-19T10:23:59.172Z,1003.19
2016-05-19T10:24:59.143Z,1003.2
2016-05-19T10:25:59.131Z,1003.24
2016-05-19T10:26:59.134Z,1003.24
2016-05-19T10:27:59.120Z,1003.26
2016-05-19T10:28:59.107Z,1003.28
2016-05-19T10:29:59.095Z,1003.23
2016-05-19T10:30:59.097Z,1003.26
2016-05-19T10:31:59.084Z,1003.31
2016-05-19T10:32:59.072Z,1003.27
2016-05-19T10:33:59.059Z,1003.28
2016-05-19T10:34:59.061Z,1003.29
2016-05-19T10:35:59.048Z,1003.3
2016-05-19T10:36:59.035Z,1003.33
2016-05-19T10:37:59.022Z,1003.33
2016-05-19T10:38:59.009Z,1003.29
2016-05-19T10:39:59.012Z,1003.31
2016-05-19T10:40:58.999Z,1003.31
2016-05-19T10:41:58.986Z,1003.32
2016-05-19T10:42:58.974Z,1003.36
2016-05-19T10:43:58.960Z,1003.33
2016-05-19T10:44:58.963Z,1003.33
2016-05-19T10:45:58.950Z,1003.34
2016-05-19T10:46:58.938Z,1003.39
2016-05-19T10:47:58.924Z,1003.36
2016-05-19T10:48:58.911Z,1003.39
2016-05-19T10:49:58.898Z,1003.36
2016-05-19T10:50:58.901Z,1003.36
2016-05-19T10:51:58.888Z,1003.37
2016-05-19T10:52:58.876Z,1003.47
2016-05-19T10:53:58.862Z,1003.44
2016-05-19T10:54:58.849Z,1003.48
2016-05-19T10:55:58.837Z,1003.49
2016-05-19T10:56:58.839Z,1003.45
2016-05-19T10:57:58.825Z,1003.5
2016-05-19T10:58:58.813Z,1003.5
2016-05-19T10:59:58.801Z,1003.56
2016-05-19T11:00:58.803Z,1003.58
2016-05-19T11:01:58.790Z,1003.6
2016-05-19T11:02:58.777Z,1003.57
2016-05-19T11:03:58.780Z,1003.58
2016-05-19T11:04:58.766Z,1003.56
2016-05-19T11:05:58.753Z,1003.57
2016-05-19T11:06:58.756Z,1003.58
2016-05-19T11:07:58.744Z,1003.66
2016-05-19T11:08:58.731Z,1003.69
2016-05-19T11:09:58.733Z,1003.7
2016-05-19T11:10:58.719Z,1003.77
2016-05-19T11:11:58.707Z,1003.8
2016-05-19T11:12:58.711Z,1003.74
2016-05-19T11:13:58.713Z,1003.8
2016-05-19T11:14:58.700Z,1003.77
2016-05-19T11:15:58.702Z,1003.83
2016-05-19T11:16:58.690Z,1003.73
2016-05-19T11:17:58.692Z,1003.79
2016-05-19T11:18:58.695Z,1003.77
2016-05-19T11:19:58.682Z,1003.75
2016-05-19T11:20:58.685Z,1003.78
2016-05-19T11:21:58.671Z,1003.76
2016-05-19T11:22:58.674Z,1003.77
2016-05-19T11:23:58.990Z,1003.79
2016-05-19T11:24:58.665Z,1003.79
2016-05-19T11:25:58.667Z,1003.84
2016-05-19T11:26:58.654Z,1003.84
2016-05-19T11:27:58.657Z,1003.79
2016-05-19T11:28:58.644Z,1003.79
2016-05-19T11:29:58.646Z,1003.88
2016-05-19T11:30:58.634Z,1003.83
2016-05-19T11:31:58.636Z,1003.82
2016-05-19T11:32:58.654Z,1003.87
2016-05-19T11:33:58.625Z,1003.89
2016-05-19T11:34:58.628Z,1003.88
2016-05-19T11:35:58.616Z,1003.87
2016-05-19T11:36:58.619Z,1003.82
2016-05-19T11:37:58.605Z,1003.81
2016-05-19T11:38:58.608Z,1003.8
2016-05-19T11:39:58.594Z,1003.81
2016-05-19T11:40:58.582Z,1003.8
2016-05-19T11:41:58.586Z,1003.77
2016-05-19T11:42:58.572Z,1003.79
2016-05-19T11:43:58.558Z,1003.77
2016-05-19T11:44:58.561Z,1003.79
2016-05-19T11:45:58.564Z,1003.79
2016-05-19T11:46:58.590Z,1003.77
2016-05-19T11:47:58.616Z,1003.76
2016-05-19T11:48:58.644Z,1003.75
2016-05-19T11:49:58.688Z,1003.78
2016-05-19T11:50:58.714Z,1003.76
2016-05-19T11:51:58.734Z,1003.72
2016-05-19T11:52:58.735Z,1003.72
2016-05-19T11:53:59.065Z,1003.76
2016-05-19T11:54:58.754Z,1003.79
2016-05-19T11:55:58.771Z,1003.74
2016-05-19T11:56:58.748Z,1003.78
2016-05-19T11:57:58.756Z,1003.79
2016-05-19T11:58:58.749Z,1003.79
2016-05-19T11:59:58.758Z,1003.76
2016-05-19T12:00:58.766Z,1003.77
2016-05-19T12:01:58.755Z,1003.79
2016-05-19T12:02:58.744Z,1003.84
2016-05-19T12:03:58.732Z,1003.91
2016-05-19T12:04:58.721Z,1003.92
2016-05-19T12:05:58.726Z,1003.95
2016-05-19T12:06:58.714Z,1003.98
2016-05-19T12:07:58.718Z,1004
2016-05-19T12:08:58.721Z,1004.03
2016-05-19T12:09:58.708Z,1004.11
2016-05-19T12:10:58.712Z,1003.99
2016-05-19T12:11:58.699Z,1004.07
2016-05-19T12:12:58.702Z,1004.04
2016-05-19T12:13:58.705Z,1004.04
2016-05-19T12:14:58.740Z,1004.03
2016-05-19T12:15:58.697Z,1004
2016-05-19T12:16:58.699Z,1003.98
2016-05-19T12:17:58.686Z,1004.02
2016-05-19T12:18:58.689Z,1004.07
2016-05-19T12:19:58.676Z,1004.03